createdAt,value
2017-06-14T00:00:09.074Z,20.93
2017-06-14T00:01:19.464Z,20.93
2017-06-14T00:02:29.810Z,20.83
2017-06-14T00:03:39.863Z,20.81
2017-06-14T00:04:50.224Z,20.81
2017-06-14T00:06:00.567Z,20.81
2017-06-14T00:07:10.343Z,20.78
2017-06-14T00:08:20.682Z,20.75
2017-06-14T00:09:31.018Z,20.79
2017-06-14T00:10:41.049Z,20.72
2017-06-14T00:11:51.096Z,20.75
2017-06-14T00:13:01.432Z,20.66
2017-06-14T00:14:11.790Z,20.67
2017-06-14T00:15:21.505Z,20.68
2017-06-14T00:16:31.688Z,20.67
2017-06-14T00:17:42.043Z,20.64
2017-06-14T00:18:52.442Z,20.74
2017-06-14T00:20:02.806Z,20.64
2017-06-14T00:21:13.155Z,20.64
2017-06-14T00:22:23.522Z,20.49
2017-06-14T00:23:33.888Z,20.67
2017-06-14T00:24:44.244Z,20.51
2017-06-14T00:25:54.588Z,20.63
2017-06-14T00:27:04.928Z,20.61
2017-06-14T00:28:15.282Z,20.6
2017-06-14T00:29:25.642Z,20.63
2017-06-14T00:30:35.683Z,20.51
2017-06-14T00:31:46.032Z,20.57
2017-06-14T00:32:56.383Z,20.49
2017-06-14T00:34:06.733Z,20.51
2017-06-14T00:35:16.796Z,20.51
2017-06-14T00:36:26.882Z,20.51
2017-06-14T00:37:37.234Z,20.54
2017-06-14T00:38:47.582Z,20.51
2017-06-14T00:39:57.626Z,20.6
2017-06-14T00:41:07.999Z,20.6
2017-06-14T00:42:18.075Z,20.49
2017-06-14T00:43:28.422Z,20.48
2017-06-14T00:44:38.779Z,20.48
2017-06-14T00:45:48.823Z,20.49
2017-06-14T00:46:59.175Z,20.48
2017-06-14T00:48:09.590Z,20.46
2017-06-14T00:49:19.941Z,20.46
2017-06-14T00:50:30.298Z,20.38
2017-06-14T00:51:40.651Z,20.48
2017-06-14T00:52:50.386Z,20.35
2017-06-14T00:54:00.738Z,20.35
2017-06-14T00:55:10.766Z,20.41
2017-06-14T00:56:20.796Z,20.34
2017-06-14T00:57:31.143Z,20.35
2017-06-14T00:58:41.485Z,20.41
2017-06-14T00:59:51.894Z,20.3
2017-06-14T01:01:01.932Z,20.35
2017-06-14T01:02:12.282Z,20.42
2017-06-14T01:03:22.631Z,20.37
2017-06-14T01:04:33.012Z,20.38
2017-06-14T01:05:43.407Z,20.37
2017-06-14T01:06:53.440Z,20.38
2017-06-14T01:08:03.796Z,20.35
2017-06-14T01:09:13.840Z,20.41
2017-06-14T01:10:23.875Z,20.42
2017-06-14T01:11:33.939Z,20.42
2017-06-14T01:12:43.967Z,20.37
2017-06-14T01:13:54.023Z,20.29
2017-06-14T01:15:04.368Z,20.26
2017-06-14T01:16:14.411Z,20.26
2017-06-14T01:17:24.880Z,20.37
2017-06-14T01:18:35.212Z,20.32
2017-06-14T01:19:45.567Z,20.41
2017-06-14T01:20:55.904Z,20.29
2017-06-14T01:22:05.927Z,20.27
2017-06-14T01:23:16.013Z,20.35
2017-06-14T01:24:26.346Z,20.34
2017-06-14T01:25:36.385Z,20.42
2017-06-14T01:26:46.735Z,20.37
2017-06-14T01:27:57.089Z,20.35
2017-06-14T01:29:07.435Z,20.27
2017-06-14T01:30:17.473Z,20.23
2017-06-14T01:31:27.818Z,20.29
2017-06-14T01:32:38.164Z,20.2
2017-06-14T01:33:48.196Z,20.15
2017-06-14T01:34:58.280Z,20.12
2017-06-14T01:36:08.309Z,20.08
2017-06-14T01:37:18.341Z,20.07
2017-06-14T01:38:28.677Z,20.05
2017-06-14T01:39:38.098Z,20.02
2017-06-14T01:40:48.450Z,20.12
2017-06-14T01:41:58.786Z,20.02
2017-06-14T01:43:08.814Z,19.98
2017-06-14T01:44:19.151Z,20.08
2017-06-14T01:45:29.507Z,20.04
2017-06-14T01:46:39.904Z,20.02
2017-06-14T01:47:49.948Z,20.01
2017-06-14T01:49:00.296Z,19.93
2017-06-14T01:50:10.654Z,20.15
2017-06-14T01:51:21.026Z,20.04
2017-06-14T01:52:31.107Z,20
2017-06-14T01:53:41.453Z,20
2017-06-14T01:54:51.794Z,20.01
2017-06-14T01:56:01.837Z,20.01
2017-06-14T01:57:12.177Z,19.98
2017-06-14T01:58:22.577Z,19.92
2017-06-14T01:59:32.610Z,19.93
2017-06-14T02:00:42.942Z,19.93
2017-06-14T02:01:53.282Z,19.92
2017-06-14T02:03:03.627Z,19.83
2017-06-14T02:04:13.665Z,19.85
2017-06-14T02:05:23.691Z,19.79
2017-06-14T02:06:33.404Z,19.78
2017-06-14T02:07:43.745Z,19.78
2017-06-14T02:08:54.096Z,19.74
2017-06-14T02:10:04.187Z,19.79
2017-06-14T02:11:14.531Z,19.72
2017-06-14T02:12:24.567Z,19.72
2017-06-14T02:13:34.592Z,19.65
2017-06-14T02:14:44.960Z,19.64
2017-06-14T02:15:55.312Z,19.67
2017-06-14T02:17:05.641Z,19.65
2017-06-14T02:18:15.986Z,19.67
2017-06-14T02:19:26.339Z,19.63
2017-06-14T02:20:36.369Z,19.57
2017-06-14T02:21:46.121Z,19.65
2017-06-14T02:22:56.146Z,19.68
2017-06-14T02:24:06.180Z,19.65
2017-06-14T02:25:16.521Z,19.63
2017-06-14T02:26:26.863Z,19.64
2017-06-14T02:27:36.631Z,19.57
2017-06-14T02:28:46.982Z,19.6
2017-06-14T02:29:57.021Z,19.68
2017-06-14T02:31:07.364Z,19.64
2017-06-14T02:32:17.401Z,19.55
2017-06-14T02:33:27.780Z,19.68
2017-06-14T02:34:38.115Z,19.53
2017-06-14T02:35:48.455Z,19.55
2017-06-14T02:36:58.789Z,19.63
2017-06-14T02:38:08.834Z,19.64
2017-06-14T02:39:19.175Z,19.52
2017-06-14T02:40:29.512Z,19.52
2017-06-14T02:41:39.861Z,19.52
2017-06-14T02:42:49.895Z,19.55
2017-06-14T02:43:59.930Z,19.55
2017-06-14T02:45:10.011Z,19.42
2017-06-14T02:46:20.358Z,19.57
2017-06-14T02:47:30.401Z,19.45
2017-06-14T02:48:40.746Z,19.46
2017-06-14T02:49:50.464Z,19.53
2017-06-14T02:51:00.873Z,19.46
2017-06-14T02:52:11.213Z,19.47
2017-06-14T02:53:21.544Z,19.6
2017-06-14T02:54:31.886Z,19.55
2017-06-14T02:55:41.925Z,19.53
2017-06-14T02:56:52.272Z,19.47
2017-06-14T02:58:02.632Z,19.56
2017-06-14T02:59:12.667Z,19.47
2017-06-14T03:00:23.024Z,19.53
2017-06-14T03:01:33.371Z,19.53
2017-06-14T03:32:48.944Z,17.9
2017-06-14T03:33:59.280Z,17.8
2017-06-14T03:35:09.640Z,17.83
2017-06-14T03:36:20.003Z,17.96
2017-06-14T03:37:30.038Z,18.1
2017-06-14T03:38:40.397Z,18.2
2017-06-14T03:39:50.735Z,18.34
2017-06-14T03:41:00.786Z,18.5
2017-06-14T03:42:10.840Z,18.69
2017-06-14T03:43:21.196Z,18.86
2017-06-14T03:44:31.602Z,19.09
2017-06-14T03:45:41.960Z,19.28
2017-06-14T03:46:51.687Z,19.42
2017-06-14T03:48:02.035Z,19.63
2017-06-14T03:49:12.391Z,19.78
2017-06-14T03:50:22.790Z,20
2017-06-14T03:51:33.136Z,20.2
2017-06-14T03:52:43.477Z,20.34
2017-06-14T03:53:53.511Z,20.51
2017-06-14T03:55:03.889Z,20.66
2017-06-14T03:56:14.309Z,20.71
2017-06-14T03:57:24.028Z,20.88
2017-06-14T03:58:34.384Z,21.01
2017-06-14T03:59:44.434Z,21.19
2017-06-14T04:00:54.474Z,21.18
2017-06-14T04:02:04.243Z,21.4
2017-06-14T04:03:14.611Z,21.52
2017-06-14T04:04:24.647Z,21.61
2017-06-14T04:05:35.009Z,21.61
2017-06-14T04:06:45.373Z,21.7
2017-06-14T04:07:55.448Z,21.76
2017-06-14T04:09:05.469Z,21.89
2017-06-14T04:10:15.815Z,21.97
2017-06-14T04:11:25.870Z,21.99
2017-06-14T04:12:36.225Z,22.08
2017-06-14T04:13:46.340Z,22.12
2017-06-14T04:14:56.687Z,22.31
2017-06-14T04:16:07.036Z,22.36
2017-06-14T04:17:17.392Z,22.46
2017-06-14T04:18:27.739Z,22.41
2017-06-14T04:19:38.092Z,22.52
2017-06-14T04:20:48.436Z,22.57
2017-06-14T04:21:58.160Z,22.64
2017-06-14T04:23:08.508Z,22.64
2017-06-14T04:24:18.845Z,22.7
2017-06-14T04:25:28.939Z,22.78
2017-06-14T04:26:39.279Z,22.81
2017-06-14T04:27:49.310Z,22.89
2017-06-14T04:28:59.654Z,22.85
2017-06-14T04:30:09.696Z,22.86
2017-06-14T04:31:20.045Z,22.86
2017-06-14T04:32:30.083Z,22.91
2017-06-14T04:33:40.429Z,22.91
2017-06-14T04:34:50.467Z,22.94
2017-06-14T04:36:00.185Z,23.1
2017-06-14T04:37:10.576Z,23.29
2017-06-14T04:38:20.616Z,23.4
2017-06-14T04:39:30.961Z,23.5
2017-06-14T04:40:41.001Z,23.62
2017-06-14T04:41:51.052Z,23.81
2017-06-14T04:43:01.445Z,23.9
2017-06-14T04:44:11.768Z,24.03
2017-06-14T04:45:22.133Z,24.11
2017-06-14T04:46:31.910Z,24.27
2017-06-14T04:47:42.260Z,24.44
2017-06-14T04:48:52.610Z,24.58
2017-06-14T04:50:02.961Z,24.55
2017-06-14T04:51:13.318Z,24.66
2017-06-14T04:52:23.366Z,24.77
2017-06-14T04:53:33.715Z,24.86
2017-06-14T04:54:44.118Z,24.71
2017-06-14T04:55:54.461Z,24.56
2017-06-14T04:57:04.807Z,24.54
2017-06-14T04:58:15.157Z,24.49
2017-06-14T04:59:25.514Z,24.49
2017-06-14T05:00:35.599Z,24.46
2017-06-14T05:01:45.945Z,24.34
2017-06-14T05:02:56.296Z,24.34
2017-06-14T05:04:06.338Z,24.33
2017-06-14T05:05:16.375Z,24.7
2017-06-14T05:06:26.411Z,24.75
2017-06-14T05:07:36.448Z,24.9
2017-06-14T05:08:46.469Z,24.8
2017-06-14T05:09:56.820Z,25.01
2017-06-14T05:11:06.863Z,25.88
2017-06-14T05:12:16.895Z,25.69
2017-06-14T05:13:27.241Z,26.32
2017-06-14T05:14:37.582Z,26.31
2017-06-14T05:15:47.608Z,25.78
2017-06-14T05:16:57.633Z,25.57
2017-06-14T05:18:07.714Z,25.62
2017-06-14T05:19:18.071Z,25.3
2017-06-14T05:20:28.102Z,25.04
2017-06-14T05:21:38.475Z,25.34
2017-06-14T05:22:48.815Z,25.41
2017-06-14T05:23:59.208Z,25.79
2017-06-14T05:25:09.579Z,25.52
2017-06-14T05:26:19.631Z,26.32
2017-06-14T05:27:29.987Z,25.97
2017-06-14T05:28:40.040Z,25.75
2017-06-14T05:29:50.451Z,26.07
2017-06-14T05:31:00.802Z,26.81
2017-06-14T05:32:10.844Z,27.27
2017-06-14T05:33:20.867Z,28.01
2017-06-14T05:34:30.594Z,28.91
2017-06-14T05:35:40.637Z,29.28
2017-06-14T05:36:50.696Z,29.69
2017-06-14T05:38:01.058Z,29.73
2017-06-14T05:39:11.395Z,30.09
2017-06-14T05:40:21.423Z,30.35
2017-06-14T05:41:31.773Z,30.64
2017-06-14T05:42:42.125Z,30.88
2017-06-14T05:43:52.487Z,31.13
2017-06-14T05:45:02.848Z,31.1
2017-06-14T05:46:13.189Z,31.31
2017-06-14T05:47:23.583Z,31.45
2017-06-14T05:48:33.934Z,31.5
2017-06-14T05:49:44.287Z,31.45
2017-06-14T05:50:54.633Z,31.41
2017-06-14T05:52:04.994Z,30.24
2017-06-14T05:53:15.082Z,30.54
2017-06-14T05:54:24.794Z,30.66
2017-06-14T05:55:35.159Z,30.66
2017-06-14T05:56:45.536Z,30.67
2017-06-14T05:57:55.878Z,30.44
2017-06-14T05:59:05.963Z,30.51
2017-06-14T06:00:16.321Z,30.19
2017-06-14T06:01:26.690Z,30.32
2017-06-14T06:02:37.050Z,30.31
2017-06-14T06:03:47.403Z,30.31
2017-06-14T06:04:57.485Z,30.28
2017-06-14T06:06:07.525Z,30.11
2017-06-14T06:07:17.871Z,30.03
2017-06-14T06:08:28.220Z,29.87
2017-06-14T06:09:38.587Z,29.76
2017-06-14T06:10:48.943Z,29.77
2017-06-14T06:11:59.304Z,29.65
2017-06-14T06:13:09.332Z,29.47
2017-06-14T06:14:19.688Z,29.45
2017-06-14T06:15:29.735Z,29.52
2017-06-14T06:16:40.143Z,29.48
2017-06-14T06:17:50.172Z,29.29
2017-06-14T06:19:00.201Z,29.24
2017-06-14T06:20:10.548Z,29.18
2017-06-14T06:21:20.889Z,29.2
2017-06-14T06:22:31.285Z,29.33
2017-06-14T06:23:41.637Z,29.38
2017-06-14T06:24:51.985Z,29.28
2017-06-14T06:26:02.345Z,29.15
2017-06-14T06:27:12.393Z,28.97
2017-06-14T06:28:22.790Z,28.82
2017-06-14T06:29:33.246Z,28.75
2017-06-14T06:30:43.847Z,28.55
2017-06-14T06:31:54.226Z,28.48
2017-06-14T06:33:04.577Z,28.41
2017-06-14T06:34:14.928Z,28.27
2017-06-14T06:35:25.286Z,28.16
2017-06-14T06:36:35.650Z,28.06
2017-06-14T06:37:46.044Z,28.11
2017-06-14T06:38:56.086Z,28.01
2017-06-14T06:40:05.502Z,27.96
2017-06-14T06:41:15.884Z,27.9
2017-06-14T06:42:26.241Z,27.68
2017-06-14T06:43:36.599Z,27.68
2017-06-14T06:44:46.951Z,27.48
2017-06-14T06:45:57.038Z,27.48
2017-06-14T06:47:07.090Z,27.53
2017-06-14T06:48:17.135Z,27.52
2017-06-14T06:49:27.507Z,27.36
2017-06-14T06:50:37.870Z,27.37
2017-06-14T06:51:48.225Z,27.23
2017-06-14T06:52:58.261Z,27.08
2017-06-14T06:54:08.600Z,27.06
2017-06-14T06:55:18.655Z,27.04
2017-06-14T06:56:28.704Z,27.01
2017-06-14T06:57:38.794Z,26.96
2017-06-14T06:58:49.138Z,26.97
2017-06-14T06:59:59.489Z,26.86
2017-06-14T07:01:09.847Z,26.81
2017-06-14T07:02:20.199Z,26.71
2017-06-14T07:03:30.605Z,26.64
2017-06-14T07:04:40.332Z,26.6
2017-06-14T07:05:50.827Z,26.57
2017-06-14T07:07:01.184Z,26.59
2017-06-14T07:08:11.544Z,26.64
2017-06-14T07:09:21.634Z,26.59
2017-06-14T07:10:31.978Z,26.6
2017-06-14T07:11:42.005Z,26.59
2017-06-14T07:12:52.066Z,26.59
2017-06-14T07:14:02.413Z,26.53
2017-06-14T07:15:13.193Z,26.44
2017-06-14T07:16:24.987Z,26.45
2017-06-14T07:17:35.810Z,26.34
2017-06-14T07:18:45.555Z,26.35
2017-06-14T07:19:55.601Z,26.3
2017-06-14T07:21:05.693Z,26.24
2017-06-14T07:22:16.043Z,26.24
2017-06-14T07:23:26.396Z,26.23
2017-06-14T07:24:36.764Z,26.23
2017-06-14T07:25:47.132Z,26.24
2017-06-14T07:26:57.223Z,26.01
2017-06-14T07:28:07.569Z,25.91
2017-06-14T07:29:17.603Z,25.94
2017-06-14T07:30:27.952Z,26.03
2017-06-14T07:31:38.011Z,26.19
2017-06-14T07:32:48.421Z,26.3
2017-06-14T07:33:58.460Z,26.34
2017-06-14T07:35:08.817Z,26.24
2017-06-14T07:36:18.869Z,26.24
2017-06-14T07:37:28.904Z,26.17
2017-06-14T07:38:39.245Z,26.17
2017-06-14T07:39:49.614Z,26.34
2017-06-14T07:40:59.965Z,26.38
2017-06-14T07:42:10.316Z,26.42
2017-06-14T07:43:20.357Z,26.41
2017-06-14T07:44:30.720Z,26.49
2017-06-14T07:45:41.072Z,26.42
2017-06-14T07:46:51.116Z,26.45
2017-06-14T07:48:01.459Z,26.41
2017-06-14T07:49:11.180Z,26.42
2017-06-14T07:50:21.594Z,26.37
2017-06-14T07:51:31.936Z,26.31
2017-06-14T07:52:42.320Z,26.3
2017-06-14T07:53:52.689Z,26.41
2017-06-14T07:55:03.061Z,26.41
2017-06-14T07:56:13.479Z,26.45
2017-06-14T07:57:23.838Z,26.44
2017-06-14T07:58:34.210Z,26.54
2017-06-14T07:59:44.263Z,26.57
2017-06-14T08:00:54.010Z,26.67
2017-06-14T08:02:04.431Z,26.76
2017-06-14T08:03:14.812Z,26.79
2017-06-14T08:04:25.182Z,26.91
2017-06-14T08:05:35.531Z,27.05
2017-06-14T08:06:45.892Z,27.06
2017-06-14T08:07:56.294Z,27.13
2017-06-14T08:09:06.642Z,27.26
2017-06-14T08:10:17.008Z,27.41
2017-06-14T08:11:27.366Z,27.52
2017-06-14T08:12:37.402Z,27.66
2017-06-14T08:13:47.484Z,27.59
2017-06-14T08:14:57.534Z,27.55
2017-06-14T08:16:07.873Z,27.49
2017-06-14T08:17:18.224Z,27.46
2017-06-14T08:18:28.578Z,27.45
2017-06-14T08:19:38.969Z,27.51
2017-06-14T08:20:49.013Z,27.61
2017-06-14T08:21:59.360Z,27.68
2017-06-14T08:23:09.388Z,27.59
2017-06-14T08:24:19.739Z,27.59
2017-06-14T08:25:30.144Z,27.46
2017-06-14T08:26:40.485Z,27.66
2017-06-14T08:27:50.835Z,27.74
2017-06-14T08:29:01.172Z,27.76
2017-06-14T08:30:10.904Z,27.69
2017-06-14T08:31:21.297Z,27.52
2017-06-14T08:32:31.645Z,27.46
2017-06-14T08:33:41.995Z,27.61
2017-06-14T08:34:51.725Z,27.64
2017-06-14T08:36:01.767Z,27.66
2017-06-14T08:37:12.163Z,27.72
2017-06-14T08:38:21.887Z,27.71
2017-06-14T08:39:32.217Z,27.87
2017-06-14T08:40:42.559Z,27.69
2017-06-14T08:41:52.913Z,27.84
2017-06-14T08:43:03.412Z,27.9
2017-06-14T08:44:13.766Z,27.87
2017-06-14T08:45:24.123Z,27.89
2017-06-14T08:46:34.487Z,27.87
2017-06-14T08:47:44.838Z,27.9
2017-06-14T08:48:55.193Z,27.89
2017-06-14T08:50:05.229Z,28.02
2017-06-14T08:51:15.268Z,28.02
2017-06-14T08:52:25.617Z,27.94
2017-06-14T08:53:35.968Z,28.03
2017-06-14T08:54:46.388Z,27.96
2017-06-14T08:55:56.723Z,27.93
2017-06-14T08:57:06.464Z,27.86
2017-06-14T08:58:16.843Z,27.87
2017-06-14T08:59:27.204Z,28.02
2017-06-14T09:00:37.635Z,28.14
2017-06-14T09:01:48.027Z,28.09
2017-06-14T09:02:57.788Z,28.23
2017-06-14T09:04:07.523Z,28.18
2017-06-14T09:05:17.886Z,28.24
2017-06-14T09:06:28.297Z,28.17
2017-06-14T09:07:38.641Z,28.16
2017-06-14T09:08:48.993Z,28.16
2017-06-14T09:09:59.015Z,28.27
2017-06-14T09:11:09.369Z,28.26
2017-06-14T09:12:19.802Z,28.33
2017-06-14T09:13:29.573Z,28.39
2017-06-14T09:14:39.938Z,28.27
2017-06-14T09:15:50.273Z,28.36
2017-06-14T09:17:00.002Z,28.43
2017-06-14T09:18:10.401Z,28.51
2017-06-14T09:19:20.450Z,28.6
2017-06-14T09:20:30.501Z,28.31
2017-06-14T09:21:41.107Z,28.39
2017-06-14T09:22:51.475Z,28.55
2017-06-14T09:24:01.590Z,28.58
2017-06-14T09:25:11.617Z,28.39
2017-06-14T09:26:21.995Z,28.51
2017-06-14T09:27:32.347Z,28.63
2017-06-14T09:28:42.063Z,28.41
2017-06-14T09:29:52.487Z,28.58
2017-06-14T09:31:02.935Z,28.78
2017-06-14T09:32:13.284Z,28.82
2017-06-14T09:33:23.351Z,28.98
2017-06-14T09:34:33.400Z,29.11
2017-06-14T09:35:43.759Z,29.02
2017-06-14T09:36:54.151Z,29.13
2017-06-14T09:38:04.196Z,29.4
2017-06-14T09:39:14.554Z,29.55
2017-06-14T09:40:24.597Z,29.65
2017-06-14T09:41:35.021Z,29.61
2017-06-14T09:42:45.374Z,29.58
2017-06-14T09:43:55.747Z,29.55
2017-06-14T09:45:06.101Z,29.51
2017-06-14T09:46:16.454Z,29.51
2017-06-14T09:47:26.559Z,29.45
2017-06-14T09:48:36.923Z,29.57
2017-06-14T09:49:46.963Z,29.81
2017-06-14T09:50:57.322Z,30.02
2017-06-14T09:52:07.357Z,29.98
2017-06-14T09:53:17.777Z,29.98
2017-06-14T09:54:28.112Z,29.85
2017-06-14T09:55:38.162Z,29.54
2017-06-14T09:56:48.207Z,29.1
2017-06-14T09:57:58.559Z,29.23
2017-06-14T09:59:08.984Z,29.33
2017-06-14T10:00:19.335Z,29.45
2017-06-14T10:01:29.384Z,29.38
2017-06-14T10:02:39.433Z,29.51
2017-06-14T10:03:49.787Z,29.42
2017-06-14T10:05:00.154Z,28.97
2017-06-14T10:06:10.553Z,29.06
2017-06-14T10:07:20.603Z,29.02
2017-06-14T10:08:30.962Z,28.67
2017-06-14T10:09:40.998Z,28.8
2017-06-14T10:10:51.356Z,28.85
2017-06-14T10:12:01.757Z,28.86
2017-06-14T10:13:11.789Z,28.92
2017-06-14T10:14:22.140Z,29.1
2017-06-14T10:15:31.851Z,29.18
2017-06-14T10:16:42.219Z,29.4
2017-06-14T10:17:52.582Z,29.66
2017-06-14T10:19:02.934Z,29.89
2017-06-14T10:20:13.300Z,30.11
2017-06-14T10:21:23.646Z,30.13
2017-06-14T10:22:33.996Z,30.18
2017-06-14T10:23:44.089Z,30.22
2017-06-14T10:24:54.450Z,30.11
2017-06-14T10:26:04.805Z,30.09
2017-06-14T10:27:15.169Z,29.73
2017-06-14T10:28:25.521Z,29.47
2017-06-14T10:29:35.615Z,29.61
2017-06-14T10:30:45.340Z,29.91
2017-06-14T10:31:55.373Z,30.13
2017-06-14T10:33:05.422Z,30.16
2017-06-14T10:34:15.461Z,30.28
2017-06-14T10:35:25.567Z,30.32
2017-06-14T10:36:35.909Z,30.49
2017-06-14T10:37:45.956Z,30.73
2017-06-14T10:38:56.296Z,30.88
2017-06-14T10:40:06.326Z,30.49
2017-06-14T10:41:16.372Z,30.13
2017-06-14T10:42:26.724Z,30.09
2017-06-14T10:43:37.076Z,30.14
2017-06-14T10:44:47.438Z,30.45
2017-06-14T10:45:57.791Z,30.54
2017-06-14T10:47:08.193Z,30.7
2017-06-14T10:48:18.228Z,30.81
2017-06-14T10:49:28.583Z,30.85
2017-06-14T10:50:38.945Z,30.88
2017-06-14T10:51:49.297Z,30.91
2017-06-14T10:52:59.598Z,30.75
2017-06-14T10:54:09.643Z,30.91
2017-06-14T10:55:19.683Z,31.16
2017-06-14T10:56:30.035Z,31.19
2017-06-14T10:57:40.390Z,31.33
2017-06-14T10:58:50.791Z,30.96
2017-06-14T11:00:01.146Z,31.01
2017-06-14T11:01:11.191Z,31.21
2017-06-14T11:02:21.250Z,31.16
2017-06-14T11:03:31.610Z,30.6
2017-06-14T11:04:42.013Z,30.37
2017-06-14T11:05:52.373Z,30.71
2017-06-14T11:07:02.730Z,30.99
2017-06-14T11:08:13.091Z,31.12
2017-06-14T11:09:22.822Z,31.21
2017-06-14T11:10:33.249Z,31.34
2017-06-14T11:11:43.611Z,31.44
2017-06-14T11:12:53.985Z,31.43
2017-06-14T11:14:04.373Z,31.47
2017-06-14T11:15:14.734Z,31.49
2017-06-14T11:16:25.127Z,31.43
2017-06-14T11:17:35.169Z,31.43
2017-06-14T11:18:45.218Z,31.41
2017-06-14T11:19:55.570Z,31.38
2017-06-14T11:21:05.633Z,31.53
2017-06-14T11:22:16.048Z,31.6
2017-06-14T11:23:26.415Z,31.63
2017-06-14T11:24:36.485Z,31.81
2017-06-14T11:25:46.531Z,31.87
2017-06-14T11:26:56.871Z,31.95
2017-06-14T11:28:06.977Z,32.2
2017-06-14T11:29:17.344Z,32.45
2017-06-14T11:30:27.393Z,32.46
2017-06-14T11:31:37.453Z,32.5
2017-06-14T11:32:47.816Z,32.49
2017-06-14T11:33:58.177Z,32.37
2017-06-14T11:35:08.540Z,32.38
2017-06-14T11:36:18.905Z,32.27
2017-06-14T11:37:28.975Z,32.23
2017-06-14T11:38:39.342Z,32.1
2017-06-14T11:39:49.761Z,32.16
2017-06-14T11:40:59.818Z,32.12
2017-06-14T11:42:09.878Z,32.09
2017-06-14T11:43:19.925Z,32.08
2017-06-14T11:44:30.298Z,32.01
2017-06-14T11:45:40.438Z,32
2017-06-14T11:46:50.466Z,32.17
2017-06-14T11:48:00.835Z,32.28
2017-06-14T11:49:10.884Z,32.3
2017-06-14T11:50:20.963Z,31.78
2017-06-14T11:51:31.087Z,31.95
2017-06-14T11:52:41.436Z,32.05
2017-06-14T11:53:51.471Z,32.15
2017-06-14T11:55:01.851Z,32.17
2017-06-14T11:56:12.206Z,32.23
2017-06-14T11:57:22.642Z,32.24
2017-06-14T11:58:33.032Z,32.39
2017-06-14T11:59:43.080Z,32.53
2017-06-14T12:00:53.450Z,32.52
2017-06-14T12:02:03.824Z,32.54
2017-06-14T12:03:14.246Z,32.42
2017-06-14T12:04:24.615Z,32.27
2017-06-14T12:05:34.967Z,31.72
2017-06-14T12:06:45.323Z,32.13
2017-06-14T12:07:55.692Z,32.31
2017-06-14T12:09:06.047Z,32.38
2017-06-14T12:10:16.411Z,32.53
2017-06-14T12:11:26.474Z,32.49
2017-06-14T12:12:36.527Z,32.53
2017-06-14T12:13:46.582Z,32.64
2017-06-14T12:14:56.999Z,32.65
2017-06-14T12:16:07.363Z,32.68
2017-06-14T12:17:17.414Z,32.67
2017-06-14T12:18:27.769Z,32.79
2017-06-14T12:19:37.813Z,32.81
2017-06-14T12:20:48.229Z,32.98
2017-06-14T12:21:58.620Z,32.38
2017-06-14T12:23:09.017Z,32.69
2017-06-14T12:24:19.393Z,32.68
2017-06-14T12:25:29.766Z,32.57
2017-06-14T12:26:39.877Z,32.32
2017-06-14T12:27:49.931Z,32
2017-06-14T12:29:00.282Z,31.68
2017-06-14T12:30:10.653Z,31.87
2017-06-14T12:31:21.024Z,31.88
2017-06-14T12:32:31.117Z,32.09
2017-06-14T12:33:41.505Z,32.19
2017-06-14T12:34:51.558Z,32
2017-06-14T12:36:01.912Z,31.43
2017-06-14T12:37:11.946Z,31.38
2017-06-14T12:38:22.386Z,31.53
2017-06-14T12:39:32.737Z,31.63
2017-06-14T12:40:43.095Z,31.81
2017-06-14T12:41:53.461Z,31.77
2017-06-14T12:43:03.566Z,31.91
2017-06-14T12:44:14.009Z,31.93
2017-06-14T12:45:24.364Z,31.98
2017-06-14T12:46:34.737Z,32.06
2017-06-14T12:47:45.099Z,32.13
2017-06-14T12:48:55.146Z,32.15
2017-06-14T12:50:05.483Z,32.28
2017-06-14T12:51:15.835Z,32.39
2017-06-14T12:52:26.229Z,32.38
2017-06-14T12:53:36.374Z,32.42
2017-06-14T12:54:46.739Z,32.12
2017-06-14T12:55:56.840Z,31.72
2017-06-14T12:57:07.222Z,31.72
2017-06-14T12:58:17.619Z,31.87
2017-06-14T12:59:27.345Z,31.94
2017-06-14T13:00:37.393Z,31.91
2017-06-14T13:01:47.852Z,32.05
2017-06-14T13:02:58.219Z,32.12
2017-06-14T13:04:08.268Z,32.1
2017-06-14T13:05:18.310Z,32.16
2017-06-14T13:06:28.675Z,32.25
2017-06-14T13:07:38.765Z,32.47
2017-06-14T13:08:49.174Z,32.49
2017-06-14T13:09:59.229Z,32.5
2017-06-14T13:11:09.271Z,32.47
2017-06-14T13:12:19.632Z,32.42
2017-06-14T13:13:29.743Z,32.43
2017-06-14T13:14:40.101Z,32.39
2017-06-14T13:15:50.457Z,32.31
2017-06-14T13:17:00.820Z,32.37
2017-06-14T13:18:11.175Z,32.37
2017-06-14T13:19:20.968Z,32.37
2017-06-14T13:20:31.024Z,32.38
2017-06-14T13:21:41.393Z,32.25
2017-06-14T13:22:51.754Z,32.37
2017-06-14T13:24:02.130Z,32.25
2017-06-14T13:25:12.541Z,32.31
2017-06-14T13:26:22.889Z,32.28
2017-06-14T13:27:33.254Z,32.31
2017-06-14T13:28:43.632Z,32.12
2017-06-14T13:29:53.986Z,32.09
2017-06-14T13:31:04.398Z,31.98
2017-06-14T13:32:14.784Z,32.17
2017-06-14T13:33:25.174Z,32.28
2017-06-14T13:34:35.563Z,32.28
2017-06-14T13:35:45.921Z,32.28
2017-06-14T13:36:56.018Z,32.25
2017-06-14T13:38:06.376Z,32.28
2017-06-14T13:39:16.427Z,32.32
2017-06-14T13:40:26.157Z,32.32
2017-06-14T13:41:36.598Z,32.34
2017-06-14T13:42:46.715Z,32.38
2017-06-14T13:43:57.090Z,32.42
2017-06-14T13:45:07.526Z,32.5
2017-06-14T13:46:17.894Z,32.54
2017-06-14T13:47:28.281Z,32.54
2017-06-14T13:48:39.475Z,32.49
2017-06-14T13:49:49.848Z,32.35
2017-06-14T13:51:00.194Z,32.23
2017-06-14T13:52:10.250Z,32.15
2017-06-14T13:53:20.781Z,32.05
2017-06-14T13:54:31.551Z,32.05
2017-06-14T13:55:43.572Z,32.01
2017-06-14T13:56:54.919Z,32.06
2017-06-14T13:58:05.278Z,32.03
2017-06-14T13:59:15.635Z,32.03
2017-06-14T14:00:26.011Z,32.08
2017-06-14T14:01:36.380Z,32.15
2017-06-14T14:02:46.110Z,32.2
2017-06-14T14:03:56.164Z,32.3
2017-06-14T14:05:06.542Z,32.38
2017-06-14T14:06:16.347Z,32.37
2017-06-14T14:07:26.718Z,32.31
2017-06-14T14:08:37.068Z,32.37
2017-06-14T14:09:47.138Z,32.38
2017-06-14T14:10:57.503Z,32.35
2017-06-14T14:12:07.910Z,32.3
2017-06-14T14:13:17.947Z,32.31
2017-06-14T14:14:27.987Z,32.17
2017-06-14T14:15:38.337Z,32.13
2017-06-14T14:16:48.716Z,32.09
2017-06-14T14:17:59.117Z,32.16
2017-06-14T14:19:09.157Z,32.1
2017-06-14T14:20:19.192Z,32.08
2017-06-14T14:21:29.540Z,32.05
2017-06-14T14:22:39.583Z,32.05
2017-06-14T14:23:50.352Z,32.12
2017-06-14T14:25:00.699Z,32.08
2017-06-14T14:26:11.057Z,32.08
2017-06-14T14:27:21.401Z,32.1
2017-06-14T14:28:31.806Z,32.08
2017-06-14T14:29:41.949Z,32.15
2017-06-14T14:30:51.981Z,32.05
2017-06-14T14:32:02.017Z,32.12
2017-06-14T14:33:12.379Z,32.15
2017-06-14T14:34:22.744Z,32.16
2017-06-14T14:35:32.813Z,32.19
2017-06-14T14:36:42.957Z,32.15
2017-06-14T14:37:53.300Z,32.09
2017-06-14T14:39:03.353Z,32.15
2017-06-14T14:40:13.696Z,32.13
2017-06-14T14:41:24.130Z,32.12
2017-06-14T14:42:33.867Z,32.13
2017-06-14T14:43:43.939Z,32.01
2017-06-14T14:44:55.693Z,32
2017-06-14T14:46:09.380Z,32.05
2017-06-14T14:47:23.340Z,31.97
2017-06-14T14:48:36.915Z,31.95
2017-06-14T14:49:51.151Z,31.95
2017-06-14T14:51:05.022Z,31.98
2017-06-14T14:52:17.927Z,31.78
2017-06-14T14:53:30.346Z,31.93
2017-06-14T14:54:41.667Z,31.94
2017-06-14T14:55:53.693Z,31.91
2017-06-14T14:57:06.344Z,31.93
2017-06-14T14:58:21.185Z,31.88
2017-06-14T14:59:36.757Z,31.77
2017-06-14T15:00:51.207Z,31.81
2017-06-14T15:02:05.648Z,31.82
2017-06-14T15:03:21.470Z,31.81
2017-06-14T15:04:37.107Z,31.9
2017-06-14T15:05:51.192Z,31.8
2017-06-14T15:07:05.427Z,31.94
2017-06-14T15:08:18.110Z,31.94
2017-06-14T15:09:31.410Z,32.01
2017-06-14T15:10:45.192Z,32
2017-06-14T15:11:58.471Z,31.91
2017-06-14T15:13:11.229Z,31.88
2017-06-14T15:14:24.309Z,31.8
2017-06-14T15:15:35.583Z,31.75
2017-06-14T15:16:47.383Z,31.77
2017-06-14T15:17:59.112Z,31.74
2017-06-14T15:19:11.270Z,31.68
2017-06-14T15:20:23.084Z,31.78
2017-06-14T15:21:34.991Z,31.77
2017-06-14T15:22:45.601Z,31.7
2017-06-14T15:23:55.989Z,31.74
2017-06-14T15:25:06.120Z,31.7
2017-06-14T15:26:16.501Z,31.7
2017-06-14T15:27:26.929Z,31.72
2017-06-14T15:28:37.308Z,31.77
2017-06-14T15:29:47.370Z,31.71
2017-06-14T15:30:57.487Z,31.78
2017-06-14T15:32:07.672Z,31.72
2017-06-14T15:33:18.276Z,31.7
2017-06-14T15:34:28.810Z,31.72
2017-06-14T15:35:39.242Z,31.63
2017-06-14T15:36:49.699Z,31.6
2017-06-14T15:38:00.103Z,31.59
2017-06-14T15:39:11.390Z,31.62